Oak Beach, New York
Current Conditions -  °F | °C
As of 9:53 PM on Saturday 20 Dec 2014 (Local Time) from KFRG Reporting Station
Overcast Overcast  
Wind Chill: 33°   Ceiling: 2500
Heat Index: 33°   Visibility: 10mi
Dew Point: 22°   Wind: 0mph
Humidity: 64%   Direction: NA
Pressure: 30.29"   Gusts: NA
Location:  40.6311°N, 73.3431°W
Report Text: KFRG 210253Z 00000KT 10SM OVC025 01/M06 A3029 RMK AO2 SLP259 T00061056 53003
Loading
Personal Weather Stations






























Interactive Weather Map New forecast layout! Learn more

10-Day Weather Forecast

Advertisements
Track Severe Weather on mobile